Time;durP1;ratioP1;P1;durP2;ratioP2;P2;SDS_P1;SDS_P2;PMS_P1;PMS_P2;Temp;Humidity;BMP_temperature;BMP_pressure;BME280_temperature;BME280_humidity;BME280_pressure;Samples;Min_cycle;Max_cycle;Signal;HPM_P1;HPM_P2
2022/09/08 00:01:25;;;;;;;;;;;;;;;22.45;52.28;99838.19;4994041;28;6856;-84
2022/09/08 00:03:51;;;;;;;;;;;;;;;22.46;52.35;99825.97;4994653;28;6978;-84
2022/09/08 00:06:26;;;;;;;;;;;;;;;22.50;52.27;99814.63;4994432;28;6972;-84
2022/09/08 00:08:55;;;;;;;;;;;;;;;22.54;52.17;99813.75;5009518;28;7072;-84
2022/09/08 00:11:28;;;;;;;;;;;;;;;22.58;52.82;99807.59;5009735;28;6994;-84
2022/09/08 00:14:14;;;;;;;;;;;;;;;22.63;52.46;99806.69;5008353;28;8481;-84
2022/09/08 00:17:06;;;;;;;;;;;;;;;22.67;52.29;99796.19;5008325;28;6974;-84
2022/09/08 00:19:32;;;;;;;;;;;;;;;22.72;52.33;99790.91;5005785;28;7037;-84
2022/09/08 00:21:58;;;;;;;;;;;;;;;22.78;52.43;99784.75;5010957;28;6975;-83
2022/09/08 00:24:25;;;;;;;;;;;;;;;22.81;52.40;99772.50;4999854;28;6848;-84
2022/09/08 00:26:51;;;;;;;;;;;;;;;22.84;52.68;99772.47;5009993;28;7180;-84
2022/09/08 00:29:25;;;;;;;;;;;;;;;22.85;52.57;99768.97;5025921;28;6842;-84
2022/09/08 00:31:50;;;;;;;;;;;;;;;22.85;52.27;99763.75;4972365;28;8600;-84
2022/09/08 00:34:19;;;;;;;;;;;;;;;22.84;52.64;99763.75;4994128;28;6947;-84
2022/09/08 00:36:56;;;;;;;;;;;;;;;;;;;;;
2022/09/08 00:39:23;;;;;;;;;;;;;;;22.78;52.78;99745.56;5006683;28;7232;-84
2022/09/08 00:41:50;;;;;;;;;;;;;;;22.76;53.04;99753.41;5009701;28;6985;-84
2022/09/08 00:44:54;;;;;;;;;;;;;;;22.73;53.38;99749.09;4992435;28;6823;-84
2022/09/08 00:47:33;;;;;;;;;;;;;;;22.68;53.71;99757.84;4996938;28;6804;-85
2022/09/08 00:50:25;;;;;;;;;;;;;;;22.65;53.67;99760.53;4997057;28;6799;-84
2022/09/08 00:53:00;;;;;;;;;;;;;;;22.63;53.75;99768.38;4996461;28;6987;-84
2022/09/08 00:55:37;;;;;;;;;;;;;;;22.61;53.83;99767.53;4993220;28;7011;-84
2022/09/08 00:58:05;;;;;;;;;;;;;;;22.59;54.16;99767.53;4976003;28;6796;-84
2022/09/08 01:00:57;;;;;;;;;;;;;;;22.60;54.43;99769.28;5007248;28;6968;-84
2022/09/08 01:03:34;;;;;;;;;;;;;;;22.59;54.21;99767.53;5004282;28;6814;-83
2022/09/08 01:12:51;;;;;;;;;;;;;;;22.54;54.61;99752.81;4985717;28;6789;-84
2022/09/08 01:15:27;;;;;;;;;;;;;;;22.53;54.80;99766.75;4994912;28;6986;-84
2022/09/08 01:18:01;;;;;;;;;;;;;;;22.51;54.34;99758.94;4992650;28;6998;-83
2022/09/08 01:21:04;;;;;;;;;;;;;;;22.49;54.43;99765.91;4992241;28;6807;-84
2022/09/08 01:24:18;;;;;;;;;;;;;;;22.44;54.19;99760.72;4992937;28;7844;-84
2022/09/08 01:27:00;;;;;;;;;;;;;;;22.41;54.74;99767.75;4971609;28;7068;-84
2022/09/08 01:29:28;;;;;;;;;;;;;;;22.37;54.39;99772.13;4940411;28;6892;-84
2022/09/08 01:31:58;;;;;;;;;;;;;;;22.35;54.26;99768.63;4987010;28;6966;-84
2022/09/08 01:34:27;;;;;;;;;;;;;;;22.30;54.21;99760.84;4996594;28;6795;-84
2022/09/08 01:36:58;;;;;;;;;;;;;;;22.27;54.27;99771.34;5002896;28;6802;-84
2022/09/08 01:39:26;;;;;;;;;;;;;;;22.24;54.32;99771.38;5005802;28;6967;-84
2022/09/08 01:42:05;;;;;;;;;;;;;;;22.22;54.45;99770.53;4992733;28;6978;-84
2022/09/08 01:44:43;;;;;;;;;;;;;;;22.19;54.52;99762.72;4990932;28;7010;-84
2022/09/08 01:47:25;;;;;;;;;;;;;;;22.18;54.48;99759.25;5009534;28;6830;-84
2022/09/08 01:49:56;;;;;;;;;;;;;;;22.17;54.71;99760.16;4993922;28;6824;-84
2022/09/08 01:52:25;;;;;;;;;;;;;;;22.18;55.12;99761.00;4998321;28;6804;-84
2022/09/08 01:54:53;;;;;;;;;;;;;;;22.19;55.03;99752.28;5004372;28;6803;-84
2022/09/08 01:57:21;;;;;;;;;;;;;;;22.20;55.24;99748.78;5008516;28;7163;-84
2022/09/08 01:59:56;;;;;;;;;;;;;;;22.18;54.90;99741.00;4983753;28;6829;-84
2022/09/08 02:02:37;;;;;;;;;;;;;;;22.23;55.29;99743.56;4993223;28;6993;-84
2022/09/08 02:05:07;;;;;;;;;;;;;;;22.20;55.11;99744.44;4991163;28;7142;-84
2022/09/08 02:07:47;;;;;;;;;;;;;;;;;;;;;
2022/09/08 02:10:16;;;;;;;;;;;;;;;22.22;55.47;99752.28;4991864;28;6844;-84
2022/09/08 02:13:11;;;;;;;;;;;;;;;22.17;55.21;99754.06;5008485;28;8408;-84
2022/09/08 02:16:06;;;;;;;;;;;;;;;22.18;55.65;99774.03;4999793;28;6993;-84
2022/09/08 02:18:39;;;;;;;;;;;;;;;22.17;55.67;99778.41;4989093;28;6976;-84
2022/09/08 02:21:18;;;;;;;;;;;;;;;22.17;56.10;99780.16;4991130;28;7203;-84
2022/09/08 02:23:59;;;;;;;;;;;;;;;22.18;55.88;99771.44;4990099;28;7011;-84
2022/09/08 02:26:49;;;;;;;;;;;;;;;22.18;55.61;99771.44;4993852;28;6834;-84
2022/09/08 02:29:36;;;;;;;;;;;;;;;22.17;56.00;99764.50;5009930;28;6972;-83
2022/09/08 02:32:03;;;;;;;;;;;;;;;22.16;55.74;99757.53;4975117;28;8486;-84
2022/09/08 02:34:35;;;;;;;;;;;;;;;22.15;55.97;99756.66;4997253;28;6957;-84
2022/09/08 02:37:03;;;;;;;;;;;;;;;22.12;56.05;99753.25;5008615;28;7035;-83
2022/09/08 02:39:38;;;;;;;;;;;;;;;22.08;55.94;99764.56;4990566;28;6926;-84
2022/09/08 02:42:08;;;;;;;;;;;;;;;22.05;56.00;99768.94;4980276;28;6819;-84
2022/09/08 02:44:39;;;;;;;;;;;;;;;22.03;56.41;99780.28;5009994;28;6813;-82
2022/09/08 02:47:14;;;;;;;;;;;;;;;22.03;56.03;99788.97;4984529;28;6817;-82
2022/09/08 02:49:43;;;;;;;;;;;;;;;22.04;56.05;99784.59;4993856;28;6792;-82
2022/09/08 02:52:11;;;;;;;;;;;;;;;22.03;55.93;99783.75;4992446;28;6886;-83
2022/09/08 02:54:43;;;;;;;;;;;;;;;22.07;55.79;99787.22;4998979;28;6971;-83
2022/09/08 02:57:23;;;;;;;;;;;;;;;;;;;;;
2022/09/08 03:00:10;;;;;;;;;;;;;;;22.12;55.87;99787.16;5009366;28;6932;-84
2022/09/08 03:02:52;;;;;;;;;;;;;;;22.14;55.66;99790.63;5002529;28;6810;-83
2022/09/08 03:05:30;;;;;;;;;;;;;;;22.20;55.43;99783.59;4995781;28;6827;-84
2022/09/08 03:08:05;;;;;;;;;;;;;;;22.22;55.54;99773.16;4996174;28;6981;-84
2022/09/08 03:10:35;;;;;;;;;;;;;;;22.24;55.45;99776.59;5001907;28;6893;-84
2022/09/08 03:13:05;;;;;;;;;;;;;;;22.24;55.22;99776.59;5013455;28;6867;-84
2022/09/08 03:15:38;;;;;;;;;;;;;;;22.26;55.52;99798.31;4996691;28;7223;-84
2022/09/08 03:18:10;;;;;;;;;;;;;;;22.26;55.38;99806.16;4995095;28;6837;-84
2022/09/08 03:20:41;;;;;;;;;;;;;;;22.25;55.18;99809.66;4982454;28;6858;-84
2022/09/08 03:23:15;;;;;;;;;;;;;;;22.24;55.48;99818.38;5011313;28;6966;-84
2022/09/08 03:25:52;;;;;;;;;;;;;;;;;;;;;
2022/09/08 03:28:37;;;;;;;;;;;;;;;;;;;;;
2022/09/08 03:31:55;;;;;;;;;;;;;;;;;;;;;
2022/09/08 03:34:41;;;;;;;;;;;;;;;21.73;56.74;99779.66;4998398;28;6963;-84
2022/09/08 03:37:21;;;;;;;;;;;;;;;;;;;;;
2022/09/08 03:40:03;;;;;;;;;;;;;;;21.42;57.16;99796.34;5010447;28;6888;-84
2022/09/08 03:42:37;;;;;;;;;;;;;;;21.27;57.29;99786.03;5010859;28;6822;-84
2022/09/08 03:45:07;;;;;;;;;;;;;;;21.20;57.52;99782.59;4993595;28;6875;-83
2022/09/08 03:47:36;;;;;;;;;;;;;;;21.12;57.78;99772.22;4978029;28;7199;-84
2022/09/08 03:50:03;;;;;;;;;;;;;;;21.08;58.06;99767.91;5011220;28;6995;-84
2022/09/08 03:52:29;;;;;;;;;;;;;;;21.03;58.38;99767.03;5006570;28;8534;-85
2022/09/08 03:55:00;;;;;;;;;;;;;;;20.96;58.47;99763.63;4991251;28;7045;-83
2022/09/08 03:57:28;;;;;;;;;;;;;;;20.91;58.57;99770.59;5011740;28;6991;-83
2022/09/08 03:59:57;;;;;;;;;;;;;;;20.86;59.06;99774.94;4990993;28;7015;-83
2022/09/08 04:02:31;;;;;;;;;;;;;;;20.82;59.11;99766.28;5008382;28;6990;-84
2022/09/08 04:05:11;;;;;;;;;;;;;;;;;;;;;
2022/09/08 04:07:46;;;;;;;;;;;;;;;20.80;59.28;99778.41;5010625;28;6825;-84
2022/09/08 04:10:19;;;;;;;;;;;;;;;20.77;59.52;99776.69;4996601;28;6981;-84
2022/09/08 04:13:01;;;;;;;;;;;;;;;;;;;;;
2022/09/08 04:15:38;;;;;;;;;;;;;;;20.77;60.06;99781.03;5011783;28;6792;-84
2022/09/08 04:18:10;;;;;;;;;;;;;;;20.75;59.59;99783.63;5009409;28;6800;-84
2022/09/08 04:21:14;;;;;;;;;;;;;;;20.75;59.75;99785.38;4993496;28;7404;-84
2022/09/08 04:24:04;;;;;;;;;;;;;;;20.75;60.13;99785.38;4996523;28;6834;-84
2022/09/08 04:27:15;;;;;;;;;;;;;;;;;;;;;
2022/09/08 04:29:58;;;;;;;;;;;;;;;;;;;;;
2022/09/08 04:32:37;;;;;;;;;;;;;;;;;;;;;
2022/09/08 04:35:27;;;;;;;;;;;;;;;20.73;60.30;99784.50;5009618;28;6801;-84
2022/09/08 04:38:20;;;;;;;;;;;;;;;20.75;60.67;99788.84;4994585;28;7046;-83
2022/09/08 04:40:46;;;;;;;;;;;;;;;20.75;60.70;99782.75;4990780;28;6979;-84
2022/09/08 04:43:18;;;;;;;;;;;;;;;20.75;60.77;99788.84;5004045;28;7145;-84
2022/09/08 04:45:46;;;;;;;;;;;;;;;20.75;60.82;99778.44;5001719;28;6791;-83
2022/09/08 04:48:13;;;;;;;;;;;;;;;20.73;61.09;99774.97;4979593;28;6977;-84
2022/09/08 04:50:42;;;;;;;;;;;;;;;20.76;61.01;99779.28;5011053;28;6977;-84
2022/09/08 04:53:08;;;;;;;;;;;;;;;20.76;60.96;99782.75;4995133;28;6839;-84
2022/09/08 04:55:38;;;;;;;;;;;;;;;20.76;60.90;99794.91;5002866;28;7177;-84
2022/09/08 04:58:07;;;;;;;;;;;;;;;20.76;60.74;99794.91;5011266;28;7322;-84
2022/09/08 05:00:36;;;;;;;;;;;;;;;20.75;60.78;99793.19;4992242;28;6803;-84
2022/09/08 05:03:10;;;;;;;;;;;;;;;20.74;61.10;99792.31;5005529;28;6975;-84
2022/09/08 05:05:50;;;;;;;;;;;;;;;;;;;;;
2022/09/08 05:08:25;;;;;;;;;;;;;;;20.65;61.23;99793.22;5009559;28;6831;-85
2022/09/08 05:11:12;;;;;;;;;;;;;;;20.65;61.35;99798.41;5009476;28;6827;-85
2022/09/08 05:13:49;;;;;;;;;;;;;;;;;;;;;
2022/09/08 05:16:34;;;;;;;;;;;;;;;20.64;61.32;99793.22;4999587;28;7260;-85
2022/09/08 05:19:11;;;;;;;;;;;;;;;20.61;61.10;99799.31;4990188;28;6999;-85
2022/09/08 05:21:48;;;;;;;;;;;;;;;20.57;61.69;99789.78;4991807;28;7086;-84
2022/09/08 05:24:17;;;;;;;;;;;;;;;20.57;61.78;99792.41;4998617;28;8095;-84
2022/09/08 05:26:49;;;;;;;;;;;;;;;20.61;61.43;99801.91;5000326;28;6873;-84
2022/09/08 05:29:15;;;;;;;;;;;;;;;20.61;61.64;99807.13;5009375;28;6958;-84
2022/09/08 05:31:41;;;;;;;;;;;;;;;20.63;61.90;99799.31;5007653;28;7223;-84
2022/09/08 05:34:08;;;;;;;;;;;;;;;20.63;61.70;99799.31;5000070;28;6983;-84
2022/09/08 05:36:38;;;;;;;;;;;;;;;20.63;61.96;99796.72;5013147;28;7059;-84
2022/09/08 05:39:06;;;;;;;;;;;;;;;20.60;61.95;99805.38;4993614;28;7187;-84
2022/09/08 05:41:33;;;;;;;;;;;;;;;20.60;62.04;99805.38;5010414;28;6988;-84
2022/09/08 05:44:11;;;;;;;;;;;;;;;20.60;61.71;99802.78;4991793;28;6800;-83
2022/09/08 05:46:43;;;;;;;;;;;;;;;20.61;61.71;99806.25;4994347;28;6979;-84
2022/09/08 05:49:10;;;;;;;;;;;;;;;20.60;61.35;99807.09;4993424;28;6894;-84
2022/09/08 05:51:47;;;;;;;;;;;;;;;20.56;61.60;99803.66;4979098;28;6992;-85
2022/09/08 05:54:16;;;;;;;;;;;;;;;20.55;62.15;99807.13;5008373;28;6989;-84
2022/09/08 05:56:44;;;;;;;;;;;;;;;20.54;62.41;99801.06;5008797;28;6968;-85
2022/09/08 05:59:16;;;;;;;;;;;;;;;20.58;61.78;99806.25;5009825;28;6994;-84
2022/09/08 06:01:44;;;;;;;;;;;;;;;20.57;62.19;99815.81;5009672;28;6804;-84
2022/09/08 06:04:20;;;;;;;;;;;;;;;;;;;;;
2022/09/08 06:06:46;;;;;;;;;;;;;;;20.58;61.73;99819.28;5006664;28;6880;-83
2022/09/08 06:09:16;;;;;;;;;;;;;;;20.60;62.08;99826.22;4990011;28;6954;-84
2022/09/08 06:11:42;;;;;;;;;;;;;;;20.57;61.75;99817.53;5000373;28;6788;-84
2022/09/08 06:14:28;;;;;;;;;;;;;;;20.52;62.09;99818.44;5003136;28;6794;-84
2022/09/08 06:17:08;;;;;;;;;;;;;;;;;;;;;
2022/09/08 06:19:34;;;;;;;;;;;;;;;20.39;62.35;99828.00;4997007;28;6792;-83
2022/09/08 06:22:00;;;;;;;;;;;;;;;20.34;62.23;99829.72;5027261;28;6980;-84
2022/09/08 06:24:29;;;;;;;;;;;;;;;20.32;62.24;99822.78;5013070;28;6933;-84
2022/09/08 06:27:27;;;;;;;;;;;;;;;20.32;62.35;99822.78;4998027;28;6980;-84
2022/09/08 06:30:12;;;;;;;;;;;;;;;20.30;62.52;99832.34;4995249;28;6838;-84
2022/09/08 06:33:08;;;;;;;;;;;;;;;20.32;62.73;99836.66;4996887;28;6804;-83
2022/09/08 06:36:02;;;;;;;;;;;;;;;20.35;62.36;99831.44;4997191;28;6845;-84
2022/09/08 06:39:05;;;;;;;;;;;;;;;20.42;62.55;99839.25;5010686;28;6990;-82
2022/09/08 06:42:07;;;;;;;;;;;;;;;20.47;62.90;99837.50;4992348;28;6854;-83
2022/09/08 06:44:51;;;;;;;;;;;;;;;;;;;;;
2022/09/08 06:47:39;;;;;;;;;;;;;;;20.58;63.05;99838.38;5009185;28;6809;-84
2022/09/08 06:50:12;;;;;;;;;;;;;;;20.62;62.45;99842.69;5011469;28;6991;-84
2022/09/08 06:53:06;;;;;;;;;;;;;;;20.71;63.08;99840.94;4995633;28;6800;-83
2022/09/08 06:55:58;;;;;;;;;;;;;;;20.81;62.98;99840.03;5010916;28;7157;-84
2022/09/08 06:58:36;;;;;;;;;;;;;;;20.91;62.49;99846.97;4994196;28;7072;-83
2022/09/08 07:02:07;;;;;;;;;;;;;;;21.00;62.89;99843.47;4987113;28;6982;-83
2022/09/08 07:05:11;;;;;;;;;;;;;;;21.06;62.59;99838.25;5009868;28;6815;-84
2022/09/08 07:08:10;;;;;;;;;;;;;;;21.15;62.65;99844.28;4993533;28;6800;-84
2022/09/08 07:11:09;;;;;;;;;;;;;;;;;;;;;
2022/09/08 07:13:51;;;;;;;;;;;;;;;21.31;62.24;99835.53;5006901;28;6841;-83
2022/09/08 07:16:29;;;;;;;;;;;;;;;21.40;62.74;99839.81;4978315;28;7173;-83
2022/09/08 07:19:36;;;;;;;;;;;;;;;21.48;62.08;99843.25;4994601;28;6986;-84
2022/09/08 07:23:25;;;;;;;;;;;;;;;21.59;62.64;99842.31;4996455;28;6844;-84
2022/09/08 07:26:45;;;;;;;;;;;;;;;;;;;;;
2022/09/08 07:30:00;;;;;;;;;;;;;;;;;;;;;
2022/09/08 07:32:50;;;;;;;;;;;;;;;21.84;62.21;99843.03;4967989;28;6792;-84
2022/09/08 07:35:45;;;;;;;;;;;;;;;21.87;62.16;99845.59;4997677;28;6792;-84
2022/09/08 07:38:47;;;;;;;;;;;;;;;21.93;61.84;99847.34;4993944;28;7243;-84
2022/09/08 07:41:58;;;;;;;;;;;;;;;21.97;62.09;99841.19;4978491;28;7033;-84
2022/09/08 07:44:37;;;;;;;;;;;;;;;21.99;61.41;99849.03;4991753;28;6815;-85
2022/09/08 07:48:02;;;;;;;;;;;;;;;21.96;61.26;99851.63;4982458;28;7019;-84
2022/09/08 07:50:55;;;;;;;;;;;;;;;21.97;61.57;99849.03;5009259;28;7036;-84
2022/09/08 07:54:02;;;;;;;;;;;;;;;22.06;61.77;99856.78;4996643;28;6999;-84
2022/09/08 07:56:58;;;;;;;;;;;;;;;22.20;61.54;99851.44;5009211;28;7066;-84
2022/09/08 07:59:46;;;;;;;;;;;;;;;22.32;61.13;99849.59;5009250;28;7058;-84
2022/09/08 08:02:54;;;;;;;;;;;;;;;22.36;60.79;99853.94;4977645;28;6832;-84
2022/09/08 08:05:48;;;;;;;;;;;;;;;22.36;60.50;99842.59;4973675;28;7022;-84
2022/09/08 08:08:35;;;;;;;;;;;;;;;22.30;60.51;99849.59;5008292;28;7158;-85
2022/09/08 08:11:38;;;;;;;;;;;;;;;22.28;60.16;99837.47;5007460;28;7156;-84
2022/09/08 08:14:44;;;;;;;;;;;;;;;22.28;60.32;99847.91;4997999;28;6792;-84
2022/09/08 08:17:48;;;;;;;;;;;;;;;;;;;;;
2022/09/08 08:20:53;;;;;;;;;;;;;;;22.34;59.87;99850.44;5004970;28;6813;-84
2022/09/08 08:23:57;;;;;;;;;;;;;;;22.37;59.70;99852.16;5006954;28;6972;-84
2022/09/08 08:27:02;;;;;;;;;;;;;;;22.34;59.75;99851.31;4991251;28;6985;-84
2022/09/08 08:29:51;;;;;;;;;;;;;;;;;;4992405;28;6859;-84
2022/09/08 08:32:26;;;;;;;;;;;;;;;22.71;61.55;99847.50;4990326;28;6814;-85
2022/09/08 08:35:27;;;;;;;;;;;;;;;23.03;61.23;99858.47;5008977;28;7005;-84
2022/09/08 08:37:57;;;;;;;;;;;;;;;23.32;60.92;99869.44;4994445;28;6793;-84
2022/09/08 08:40:37;;;;;;;;;;;;;;;23.45;60.03;99860.56;5008914;28;7079;-85
2022/09/08 08:43:25;;;;;;;;;;;;;;;23.54;59.14;99867.41;4992968;28;6823;-85
2022/09/08 08:46:12;;;;;;;;;;;;;;;23.56;58.26;99868.25;4977213;28;6990;-84
2022/09/08 08:49:02;;;;;;;;;;;;;;;23.57;57.91;99857.78;5006520;28;6792;-84
2022/09/08 08:52:31;;;;;;;;;;;;;;;23.53;57.99;99868.28;4990645;28;7048;-84
2022/09/08 08:55:22;;;;;;;;;;;;;;;23.42;57.51;99869.31;4997211;28;6852;-84
2022/09/08 08:58:49;;;;;;;;;;;;;;;23.43;57.63;99865.81;4999724;28;6998;-85
2022/09/08 09:01:44;;;;;;;;;;;;;;;23.52;57.44;99870.06;4991935;28;7259;-85
2022/09/08 09:04:38;;;;;;;;;;;;;;;23.62;57.45;99870.78;5010135;28;7223;-84
2022/09/08 09:07:31;;;;;;;;;;;;;;;23.69;57.15;99864.59;4992364;28;6818;-85
2022/09/08 09:10:19;;;;;;;;;;;;;;;23.77;56.87;99868.84;5013549;28;7239;-85
2022/09/08 09:13:36;;;;;;;;;;;;;;;23.81;57.11;99875.75;5013507;28;8427;-85
2022/09/08 09:16:16;;;;;;;;;;;;;;;23.72;56.42;99872.38;5011357;28;7209;-85
2022/09/08 09:19:14;;;;;;;;;;;;;;;23.66;56.32;99869.00;4995647;28;7032;-84
2022/09/08 09:22:30;;;;;;;;;;;;;;;;;;;;;
2022/09/08 09:25:34;;;;;;;;;;;;;;;;;;;;;
2022/09/08 09:28:54;;;;;;;;;;;;;;;;;;;;;
2022/09/08 09:31:26;;;;;;;;;;;;;;;23.69;56.33;99863.69;4981504;28;6804;-85
2022/09/08 09:34:45;;;;;;;;;;;;;;;23.67;56.00;99863.75;5009237;28;6794;-85
2022/09/08 09:38:20;;;;;;;;;;;;;;;;;;;;;
2022/09/08 09:41:33;;;;;;;;;;;;;;;23.49;55.85;99864.84;5003984;28;6918;-85
2022/09/08 09:44:36;;;;;;;;;;;;;;;23.48;55.66;99862.28;4993269;28;6808;-84
2022/09/08 09:47:23;;;;;;;;;;;;;;;23.53;55.48;99870.91;4992879;28;7365;-85
2022/09/08 09:50:31;;;;;;;;;;;;;;;23.64;55.25;99868.16;5009966;28;7146;-85
2022/09/08 09:53:06;;;;;;;;;;;;;;;23.76;54.69;99865.34;4988373;28;6998;-85
2022/09/08 09:56:10;;;;;;;;;;;;;;;23.79;54.68;99865.28;4992489;28;7139;-85
2022/09/08 09:59:33;;;;;;;;;;;;;;;23.75;54.04;99867.97;4994936;28;8752;-85
2022/09/08 10:02:10;;;;;;;;;;;;;;;23.68;53.96;99864.59;4987456;28;7056;-85
2022/09/08 10:05:52;;;;;;;;;;;;;;;23.65;53.80;99854.19;5012329;28;6821;-85
2022/09/08 10:09:02;;;;;;;;;;;;;;;23.66;54.30;99861.16;4992681;28;7017;-86
2022/09/08 10:12:28;;;;;;;;;;;;;;;23.74;54.14;99859.28;4979751;28;6960;-85
2022/09/08 10:15:44;;;;;;;;;;;;;;;23.92;54.10;99857.28;4993342;28;7007;-85
2022/09/08 10:18:37;;;;;;;;;;;;;;;24.10;54.35;99866.59;4993677;28;7004;-86
2022/09/08 10:21:24;;;;;;;;;;;;;;;24.35;53.48;99859.19;4992444;28;6784;-86
2022/09/08 10:24:48;;;;;;;;;;;;;;;24.64;53.48;99862.19;5012535;28;7204;-86
2022/09/08 10:27:59;;;;;;;;;;;;;;;25.06;52.88;99859.63;4940044;29;6885;-86
2022/09/08 10:31:19;;;;;;;;;;;;;;;;;;;;;
2022/09/08 10:34:19;;;;;;;;;;;;;;;25.45;50.72;99858.81;4925466;29;6922;-85
2022/09/08 10:37:15;;;;;;;;;;;;;;;;;;;;;
2022/09/08 10:40:25;;;;;;;;;;;;;;;25.29;51.00;99863.50;4991817;28;6887;-86
2022/09/08 10:42:54;;;;;;;;;;;;;;;25.19;50.33;99851.47;5004020;28;6802;-85
2022/09/08 10:46:04;;;;;;;;;;;;;;;25.21;51.27;99863.69;5007467;28;6994;-86
2022/09/08 10:49:07;;;;;;;;;;;;;;;25.68;51.51;99853.94;4989962;28;7130;-86
2022/09/08 10:51:39;;;;;;;;;;;;;;;26.36;50.07;99847.03;5007652;28;7260;-85
2022/09/08 10:54:42;;;;;;;;;;;;;;;26.89;48.90;99848.28;4990495;28;6808;-86
2022/09/08 10:58:01;;;;;;;;;;;;;;;27.58;47.87;99848.00;4991394;28;8466;-85
2022/09/08 11:00:49;;;;;;;;;;;;;;;28.45;45.15;99836.38;4990513;28;7518;-85
2022/09/08 11:04:00;;;;;;;;;;;;;;;28.58;44.93;99839.41;4994671;28;6847;-85
2022/09/08 11:06:35;;;;;;;;;;;;;;;28.74;43.07;99828.34;5011038;28;7171;-86
2022/09/08 11:09:27;;;;;;;;;;;;;;;28.80;42.79;99836.88;4995020;28;6892;-86
2022/09/08 11:12:47;;;;;;;;;;;;;;;28.92;42.68;99834.72;5007386;28;7035;-86
2022/09/08 11:15:58;;;;;;;;;;;;;;;29.04;41.96;99836.03;4982958;28;8516;-85
2022/09/08 11:18:41;;;;;;;;;;;;;;;29.54;42.27;99826.22;5011805;28;7019;-86
2022/09/08 11:21:30;;;;;;;;;;;;;;;29.83;40.50;99837.38;4994529;28;6823;-85
2022/09/08 11:24:56;;;;;;;;;;;;;;;29.47;41.03;99834.41;5009923;28;7033;-85
2022/09/08 11:28:06;;;;;;;;;;;;;;;;;;;;;
2022/09/08 11:31:33;;;;;;;;;;;;;;;28.87;41.20;99834.88;4986589;28;7057;-85
2022/09/08 11:34:46;;;;;;;;;;;;;;;29.68;40.42;99818.63;4994810;28;6892;-85
2022/09/08 11:38:13;;;;;;;;;;;;;;;30.07;39.21;99817.91;4973150;28;7068;-85
2022/09/08 11:40:49;;;;;;;;;;;;;;;30.63;39.14;99815.47;5010496;28;7234;-85
2022/09/08 11:44:19;;;;;;;;;;;;;;;31.39;38.00;99812.94;4995459;28;6836;-86
2022/09/08 11:47:25;;;;;;;;;;;;;;;32.44;37.13;99817.44;5009808;28;7007;-86
2022/09/08 11:50:32;;;;;;;;;;;;;;;33.15;35.93;99796.00;5013631;28;6843;-85
2022/09/08 11:53:31;;;;;;;;;;;;;;;33.44;34.89;99791.66;4996815;28;7090;-85
2022/09/08 11:56:57;;;;;;;;;;;;;;;;;;;;;
2022/09/08 11:59:53;;;;;;;;;;;;;;;33.45;33.98;99797.84;4999223;28;6831;-86
2022/09/08 12:03:26;;;;;;;;;;;;;;;;;;;;;
2022/09/08 12:05:56;;;;;;;;;;;;;;;33.77;33.66;99793.34;4993663;28;6871;-86
2022/09/08 12:09:06;;;;;;;;;;;;;;;34.26;32.94;99783.41;4995660;28;7015;-86
2022/09/08 12:12:01;;;;;;;;;;;;;;;34.67;31.94;99789.78;4981512;28;6793;-85
2022/09/08 12:15:24;;;;;;;;;;;;;;;34.35;31.81;99787.28;4990469;28;7046;-86
2022/09/08 12:18:40;;;;;;;;;;;;;;;33.69;32.04;99794.72;4964224;28;6809;-85
2022/09/08 12:21:34;;;;;;;;;;;;;;;33.19;32.36;99800.19;4947863;28;6983;-85
2022/09/08 12:24:24;;;;;;;;;;;;;;;32.71;32.78;99800.16;5010024;28;7079;-85
2022/09/08 12:27:16;;;;;;;;;;;;;;;32.93;32.55;99791.88;4984160;28;6792;-86
2022/09/08 12:29:57;;;;;;;;;;;;;;;33.22;31.79;99794.69;4993032;28;7084;-85
2022/09/08 12:32:42;;;;;;;;;;;;;;;32.95;32.21;99798.81;4992857;28;7185;-85
2022/09/08 12:35:35;;;;;;;;;;;;;;;32.37;32.04;99792.22;4993716;28;6998;-85
2022/09/08 12:38:06;;;;;;;;;;;;;;;31.95;32.25;99802.28;5009339;28;7001;-85
2022/09/08 12:40:59;;;;;;;;;;;;;;;31.54;33.00;99808.69;4996132;28;6983;-85
2022/09/08 12:43:42;;;;;;;;;;;;;;;31.81;33.00;99806.47;4992244;28;8506;-84
2022/09/08 12:46:38;;;;;;;;;;;;;;;32.31;32.71;99800.44;4983736;28;7164;-84
2022/09/08 12:49:34;;;;;;;;;;;;;;;32.76;32.35;99790.13;4992053;28;7229;-85
2022/09/08 12:52:02;;;;;;;;;;;;;;;32.73;31.92;99796.44;4995461;28;6986;-84
2022/09/08 12:54:44;;;;;;;;;;;;;;;32.49;32.05;99799.50;5029752;28;6822;-85
2022/09/08 12:57:54;;;;;;;;;;;;;;;32.13;32.06;99803.13;4996766;28;6853;-84
2022/09/08 13:00:27;;;;;;;;;;;;;;;31.48;32.67;99807.19;5011232;28;7006;-85
2022/09/08 13:03:32;;;;;;;;;;;;;;;30.94;33.61;99813.22;5009298;28;6850;-84
2022/09/08 13:06:23;;;;;;;;;;;;;;;31.05;34.21;99802.16;4981775;28;6824;-84
2022/09/08 13:09:20;;;;;;;;;;;;;;;31.76;32.94;99807.59;4996476;28;7063;-85
2022/09/08 13:12:40;;;;;;;;;;;;;;;32.33;32.36;99794.13;4978928;28;7009;-85
2022/09/08 13:15:05;;;;;;;;;;;;;;;32.77;31.38;99800.66;4989901;28;6965;-85
2022/09/08 13:17:54;;;;;;;;;;;;;;;32.99;31.06;99796.84;4992892;28;6788;-85
2022/09/08 13:20:26;;;;;;;;;;;;;;;33.11;30.84;99801.47;4991464;28;7321;-85
2022/09/08 13:23:18;;;;;;;;;;;;;;;33.14;30.39;99804.91;5007159;28;6871;-84
2022/09/08 13:26:11;;;;;;;;;;;;;;;33.22;30.19;99803.53;4991881;28;6986;-85
2022/09/08 13:29:01;;;;;;;;;;;;;;;33.39;30.07;99793.75;4982868;28;7083;-84
2022/09/08 13:31:57;;;;;;;;;;;;;;;33.22;30.10;99789.38;4986106;28;7011;-85
2022/09/08 13:35:04;;;;;;;;;;;;;;;32.48;30.47;99783.66;5008313;28;6824;-84
2022/09/08 13:38:07;;;;;;;;;;;;;;;31.63;31.36;99795.00;5007046;28;6855;-85
2022/09/08 13:40:43;;;;;;;;;;;;;;;30.98;32.35;99790.13;5007905;28;6862;-84
2022/09/08 13:43:53;;;;;;;;;;;;;;;30.97;32.92;99785.78;5007680;28;6812;-85
2022/09/08 13:46:58;;;;;;;;;;;;;;;31.28;32.42;99781.69;5009338;28;7201;-84
2022/09/08 13:50:11;;;;;;;;;;;;;;;31.58;31.22;99781.09;4991812;28;6992;-84
2022/09/08 13:53:53;;;;;;;;;;;;;;;;;;;;;
2022/09/08 14:00:16;;;;;;;;;;;;;;;32.16;30.62;99772.97;4987904;28;6964;-85
2022/09/08 14:03:20;;;;;;;;;;;;;;;32.29;30.91;99771.34;4993687;28;12916;-85
2022/09/08 14:06:41;;;;;;;;;;;;;;;32.23;30.31;99769.88;4991191;28;6998;-84
2022/09/08 14:09:25;;;;;;;;;;;;;;;31.63;30.64;99778.22;4999915;28;8449;-85
2022/09/08 14:12:42;;;;;;;;;;;;;;;30.99;31.62;99784.78;5025957;28;7002;-85
2022/09/08 14:15:28;;;;;;;;;;;;;;;30.15;32.16;99777.94;4979385;28;6861;-84
2022/09/08 14:18:19;;;;;;;;;;;;;;;29.67;32.60;99782.59;4991324;28;6997;-85
2022/09/08 14:20:59;;;;;;;;;;;;;;;29.23;32.71;99779.00;4990017;28;8587;-84
2022/09/08 14:23:50;;;;;;;;;;;;;;;28.87;33.12;99783.94;5006457;28;6994;-84
2022/09/08 14:26:54;;;;;;;;;;;;;;;28.57;34.20;99782.34;4973626;28;6816;-84
2022/09/08 14:29:32;;;;;;;;;;;;;;;28.35;34.58;99777.03;5013752;28;7075;-84
2022/09/08 14:32:28;;;;;;;;;;;;;;;28.26;34.75;99773.81;4991731;28;7035;-84
2022/09/08 14:35:39;;;;;;;;;;;;;;;28.33;35.47;99776.19;4993220;28;6989;-84
2022/09/08 14:39:02;;;;;;;;;;;;;;;;;;;;;
2022/09/08 14:41:37;;;;;;;;;;;;;;;29.23;34.18;99773.72;5012472;28;6856;-84
2022/09/08 14:44:37;;;;;;;;;;;;;;;29.21;34.22;99772.94;4992243;28;6991;-84
2022/09/08 14:47:30;;;;;;;;;;;;;;;28.96;34.29;99771.25;4980999;28;6843;-84
2022/09/08 14:50:38;;;;;;;;;;;;;;;28.64;34.64;99773.31;4989142;28;8829;-84
2022/09/08 14:53:37;;;;;;;;;;;;;;;28.33;35.01;99766.53;4992871;28;6959;-84
2022/09/08 14:56:29;;;;;;;;;;;;;;;28.49;35.31;99758.94;5009792;28;7018;-84
2022/09/08 14:59:17;;;;;;;;;;;;;;;28.90;35.00;99760.97;5007562;28;8428;-84
2022/09/08 15:01:51;;;;;;;;;;;;;;;28.93;34.49;99766.09;4993730;28;7098;-84
2022/09/08 15:04:30;;;;;;;;;;;;;;;28.80;34.17;99764.84;5007915;28;7049;-84
2022/09/08 15:07:01;;;;;;;;;;;;;;;28.64;34.32;99764.56;4979522;28;7062;-84
2022/09/08 15:09:46;;;;;;;;;;;;;;;28.39;34.36;99758.44;4991926;28;7008;-83
2022/09/08 15:12:35;;;;;;;;;;;;;;;28.14;35.02;99750.50;5006955;28;6803;-84
2022/09/08 15:15:44;;;;;;;;;;;;;;;27.86;35.50;99754.94;4993652;28;6970;-83
2022/09/08 15:18:32;;;;;;;;;;;;;;;27.71;35.62;99766.00;4993880;28;6986;-84
2022/09/08 15:21:28;;;;;;;;;;;;;;;27.57;35.97;99775.22;5008584;28;6845;-83
2022/09/08 15:24:25;;;;;;;;;;;;;;;27.44;36.03;99793.13;4995954;28;7144;-84
2022/09/08 15:27:28;;;;;;;;;;;;;;;27.11;36.82;99788.03;4991860;28;6978;-84
2022/09/08 15:30:18;;;;;;;;;;;;;;;26.51;37.63;99790.63;4994201;28;6804;-84
2022/09/08 15:33:43;;;;;;;;;;;;;;;;;;;;;
2022/09/08 15:37:07;;;;;;;;;;;;;;;25.50;39.19;99795.78;4973289;28;6881;-84
2022/09/08 15:40:26;;;;;;;;;;;;;;;25.16;40.36;99807.00;4998196;28;6872;-84
2022/09/08 15:43:43;;;;;;;;;;;;;;;24.85;40.47;99800.63;4988766;28;7234;-84